Terminal Aerodrome Forecast
Issued by NWS Charleston, WV

Home | Current Version | Previous Version | Text Only | Print | Product List | Glossary On
Versions: 1 2 3 4 5 6 7 8 9 10 11 12 13 14 15 16 17 18 19 20 21 22 23 24 25 26 27
277
FTUS41 KRLX 081453 AAB
TAFHTS
TAF AMD
KHTS 081453Z 0815/0912 27008KT P6SM SCT080
     FM081900 28009G16KT P6SM SCT250
     FM082100 28009G17KT P6SM SCT040
     FM082300 28009G16KT P6SM BKN040
     FM090600 29008KT P6SM OVC025=

USA.gov is the U.S. government's official web portal to all federal, state and local government web resources and services.